WMSAWMKC

Guest
Details From WMSA - Kuala Lumpur S Abdul Aziz Shah
To WMKC - Kota Bahru Sultan Ismail Petra
Flight Number -
Tags generated
Created
Modified
Stats Distance 190 nm / 353 km
Max Altitude 13,700 ft / 4,176 m
Waypoints 4
Social Downloads 0
Likes 0
Share VATSIM

Download

Looking for another format? Having issues loading an existing format? Contact us
Advertisement - Login to hide

Notes

Basic altitude profile: - Ascent Rate: 2500ft/min - Ascent Speed: 250kts - Cruise Altitude: 35000ft - Cruise Speed: 420kts - Descent Rate: 1500ft/min - Descent Speed: 250kts Options: - Use NATs: yes - Use PACOTS: yes - Use low airways: yes - Use high airways: yes

Route

WMSA PULIP G466 VKB35 WMKC

ID Type Via Altitude Latitude Longitude Leg Dist Tot Dist Heading (true) Name
O WMSA APT - 0 ft / 0 m 3.13058˚ 101.54933˚ - 0 nm - Kuala Lumpur S Abdul Aziz Shah
PULIP FIX - 13,700 ft / 4,176 m 3.67028˚ 101.89667˚ 38 nm 38 nm 33° / 33° -
VKB35 FIX G466 (AWY-LO) 9,500 ft / 2,896 m 5.58833˚ 102.21778˚ 116 nm 155 nm 9° / 9° -
O WMKC APT - 0 ft / 0 m 6.16685˚ 102.29301˚ 35 nm 190 nm 7° / 7° Kota Bahru Sultan Ismail Petra

Altitude Profile

Advertisement - Login to hide

Weather


0- 5 10 15 20 25 30 35+ Temperature / ° C

Clouds and Precipitation
Forecast for 2017-12-18 00:00 UTC. Updated 18 minutes ago

Ground ~20,000 ft ~40,000 ft Winds

WMSA

Details ICAO WMSA (SZB)
Name Kuala Lumpur S Abdul Aziz Shah
Region Malaysia (Peninsular Malaysia)
Timezone Asia/Kuala_Lumpur (UTC+8.0)
Stats Elevation 90 ft / 27 m (AMSL)
Location 3.130583° 101.549334°
Runways 1
Magnetic Variation 0.027° W

METAR

WMSA 172100Z 00000KT 8000 FEW017CB BKN270 25/23 Q1010

Decode

TAF

Not found

Departure Runways

ID Width Length Bearing (true) Bearing (mag) Surface Threshold Offset Overrun Length
15 148 ft / 45 m 12,450 ft / 3,795 m 149.84° 149.87° Asphalt 0 ft / 0 m 200 ft / 61 m
33 148 ft / 45 m 12,450 ft / 3,795 m 329.84° 329.87° Asphalt 0 ft / 0 m 200 ft / 61 m

WMKC

Details ICAO WMKC (KBR)
Name Kota Bahru Sultan Ismail Petra
Region Malaysia (Peninsular Malaysia)
Timezone Asia/Kuala_Lumpur (UTC+8.0)
Stats Elevation 16 ft / 5 m (AMSL)
Location 6.166851° 102.293014°
Runways 1
Magnetic Variation 0.119° W

METAR

WMKC 172100Z 09005KT 060V160 9999 FEW020 BKN280 26/22 Q1011

Decode

TAF

Not found

Destination Runways

ID Width Length Bearing (true) Bearing (mag) Surface Threshold Offset Overrun Length
10 150 ft / 46 m 6,978 ft / 2,127 m 99.73° 99.85° Asphalt 500 ft / 152 m 0 ft / 0 m
28 150 ft / 46 m 6,978 ft / 2,127 m 279.73° 279.85° Asphalt 200 ft / 61 m 260 ft / 79 m

Approach Navaids

Runway Type Ident Frequency Range Bearing (true) Bearing (mag) Slope Elevation
10 Localiser IKB 109.30 MHz 18 nm / 33 km 99.59° 99.71° - 16 ft / 5 m (AMSL)
10 Glidescope IKB 109.30 MHz 10 nm / 19 km 99.73° 99.85° 3.00° 16 ft / 5 m (AMSL)
10 DME IKB 109.30 MHz 18 nm / 33 km - - - 16 ft / 5 m (AMSL)

Popular Alternatives